Time;durP1;ratioP1;P1;durP2;ratioP2;P2;SDS_P1;SDS_P2;PMS_P1;PMS_P2;Temp;Humidity;BMP_temperature;BMP_pressure;BME280_temperature;BME280_humidity;BME280_pressure;Samples;Min_cycle;Max_cycle;Signal;HPM_P1;HPM_P2
2023/04/18 00:01:40;;;;;;;21.77;12.98;;;;;;;8.38;76.08;101657.28;6253017;23;20067;-79
2023/04/18 00:04:10;;;;;;;18.67;12.18;;;;;;;8.37;76.22;101658.22;6251949;23;20020;-79
2023/04/18 00:06:36;;;;;;;18.70;13.25;;;;;;;8.36;76.06;101653.97;6253814;23;20076;-78
2023/04/18 00:09:04;;;;;;;17.20;12.52;;;;;;;8.35;75.78;101657.50;6252558;23;20024;-79
2023/04/18 00:11:31;;;;;;;20.20;13.32;;;;;;;8.34;76.00;101658.47;6248968;23;20028;-79
2023/04/18 00:13:58;;;;;;;21.35;13.80;;;;;;;8.27;76.29;101655.44;6250426;23;20027;-78
2023/04/18 00:16:24;;;;;;;22.20;13.38;;;;;;;8.22;76.32;101647.97;6249550;23;20028;-77
2023/04/18 00:18:52;;;;;;;19.45;13.77;;;;;;;8.12;76.36;101656.59;6248646;23;20024;-78
2023/04/18 00:21:22;;;;;;;23.27;13.82;;;;;;;7.96;76.24;101639.50;6254187;23;20026;-78
2023/04/18 00:23:48;;;;;;;21.58;14.02;;;;;;;7.91;76.79;101653.84;6250335;23;20031;-77
2023/04/18 00:26:16;;;;;;;22.83;13.77;;;;;;;7.82;77.61;101659.72;6250134;23;20062;-78
2023/04/18 00:28:43;;;;;;;23.73;13.63;;;;;;;7.82;77.54;101655.34;6250339;23;20095;-78
2023/04/18 00:31:09;;;;;;;21.80;13.77;;;;;;;7.78;77.72;101659.09;6250197;23;20280;-79
2023/04/18 00:33:36;;;;;;;17.73;12.55;;;;;;;7.70;77.99;101653.63;6250468;23;20058;-78
2023/04/18 00:36:03;;;;;;;17.98;13.25;;;;;;;7.75;77.84;101654.13;6250452;23;20048;-78
2023/04/18 00:38:30;;;;;;;22.27;13.05;;;;;;;7.77;77.92;101652.22;6256199;23;20066;-79
2023/04/18 00:40:56;;;;;;;19.88;13.07;;;;;;;7.73;78.34;101661.22;6252243;23;20074;-78
2023/04/18 00:43:28;;;;;;;17.25;12.40;;;;;;;7.60;78.73;101648.25;6249716;23;20035;-78
2023/04/18 00:45:57;;;;;;;18.83;13.20;;;;;;;7.58;79.04;101652.75;6250539;23;20055;-78
2023/04/18 00:48:24;;;;;;;17.77;13.35;;;;;;;7.49;79.24;101650.84;6251129;23;20583;-79
2023/04/18 00:50:51;;;;;;;20.02;13.77;;;;;;;7.37;79.50;101636.09;6252426;23;20024;-80
2023/04/18 00:53:17;;;;;;;20.08;14.13;;;;;;;7.43;79.49;101653.88;6253124;23;20094;-79
2023/04/18 00:55:44;;;;;;;22.17;13.63;;;;;;;7.44;79.55;101645.13;6254898;23;20020;-79
2023/04/18 00:58:11;;;;;;;21.40;13.77;;;;;;;7.38;79.80;101644.72;6251876;23;20062;-77
2023/04/18 01:00:39;;;;;;;22.25;14.23;;;;;;;7.35;80.11;101656.19;6250269;23;20059;-79
2023/04/18 01:03:07;;;;;;;17.90;13.15;;;;;;;7.34;80.08;101641.50;6250687;23;20329;-78
2023/04/18 01:05:35;;;;;;;18.73;13.35;;;;;;;7.27;80.13;101646.31;6250126;23;20016;-80
2023/04/18 01:08:02;;;;;;;22.88;14.50;;;;;;;7.25;80.17;101644.78;6251756;23;20028;-78
2023/04/18 01:10:30;;;;;;;18.63;13.77;;;;;;;7.15;80.52;101643.75;6251561;23;20081;-79
2023/04/18 01:13:11;;;;;;;25.08;14.55;;;;;;;7.04;80.67;101639.34;6252085;23;20047;-78
2023/04/18 01:15:40;;;;;;;20.90;13.88;;;;;;;7.02;80.38;101632.59;6251700;23;20223;-78
2023/04/18 01:18:07;;;;;;;20.23;13.90;;;;;;;7.03;80.61;101644.66;6252895;23;20028;-78
2023/04/18 01:20:35;;;;;;;22.13;13.95;;;;;;;7.07;80.43;101646.09;6254106;23;20472;-79
2023/04/18 01:23:03;;;;;;;22.17;14.05;;;;;;;7.05;80.17;101637.56;6226295;23;20570;-79
2023/04/18 01:25:31;;;;;;;21.65;14.65;;;;;;;7.03;80.32;101634.25;6252161;23;20519;-78
2023/04/18 01:27:58;;;;;;;18.73;14.30;;;;;;;6.99;80.52;101634.47;6252712;23;20047;-79
2023/04/18 01:30:24;;;;;;;22.38;13.70;;;;;;;6.89;80.81;101630.84;6252267;23;20035;-79
2023/04/18 01:32:51;;;;;;;24.52;13.85;;;;;;;6.85;80.73;101623.34;6269364;22;20016;-79
2023/04/18 01:35:18;;;;;;;19.50;13.93;;;;;;;6.78;80.91;101616.91;6272318;22;20012;-78
2023/04/18 01:37:45;;;;;;;22.85;14.50;;;;;;;6.73;81.03;101619.84;6272017;22;20035;-78
2023/04/18 01:40:12;;;;;;;19.33;14.07;;;;;;;6.68;81.26;101626.28;6267418;23;20031;-79
2023/04/18 01:42:40;;;;;;;20.73;14.40;;;;;;;6.56;81.75;101620.19;6262875;23;20226;-78
2023/04/18 01:45:07;;;;;;;20.10;13.48;;;;;;;6.51;82.10;101622.28;6256653;23;20058;-79
2023/04/18 01:47:34;;;;;;;24.45;13.63;;;;;;;6.45;82.32;101617.50;6254087;23;20063;-78
2023/04/18 01:50:01;;;;;;;19.90;14.38;;;;;;;6.41;82.64;101621.25;6252728;23;20024;-79
2023/04/18 01:52:27;;;;;;;21.27;13.95;;;;;;;6.38;82.58;101619.69;6251445;23;20024;-79
2023/04/18 01:54:54;;;;;;;22.60;14.07;;;;;;;6.36;83.17;101618.13;6254727;23;20039;-79
2023/04/18 01:57:21;;;;;;;20.52;14.48;;;;;;;6.28;83.27;101616.88;6255024;23;20028;-79
2023/04/18 01:59:49;;;;;;;18.23;13.32;;;;;;;6.19;83.34;101624.44;6253806;23;20027;-79
2023/04/18 02:02:15;;;;;;;19.80;14.07;;;;;;;6.18;83.60;101618.41;6254030;23;20059;-81
2023/04/18 02:04:42;;;;;;;20.60;14.27;;;;;;;6.12;83.37;101618.88;6227080;23;20026;-79
2023/04/18 02:07:08;;;;;;;20.75;14.18;;;;;;;6.03;83.72;101619.47;6254065;23;20024;-79
2023/04/18 02:09:35;;;;;;;21.27;14.15;;;;;;;5.90;84.40;101621.22;6253000;23;20472;-78
2023/04/18 02:12:02;;;;;;;21.25;14.48;;;;;;;5.82;85.02;101621.69;6250907;23;20051;-79
2023/04/18 02:14:33;;;;;;;22.85;14.38;;;;;;;5.71;85.54;101623.31;6251163;23;20046;-78
2023/04/18 02:17:01;;;;;;;18.33;13.45;;;;;;;5.58;85.84;101626.75;6250930;23;20059;-79
2023/04/18 02:19:27;;;;;;;20.65;13.85;;;;;;;5.49;86.49;101613.50;6252086;23;20106;-78
2023/04/18 02:21:54;;;;;;;23.05;13.30;;;;;;;5.44;86.82;101613.81;6252641;23;20020;-79
2023/04/18 02:24:21;;;;;;;19.58;13.55;;;;;;;5.46;87.11;101613.72;6254136;23;20047;-81
2023/04/18 02:26:48;;;;;;;19.83;14.20;;;;;;;5.52;87.13;101619.34;6260626;23;20024;-79
2023/04/18 02:29:15;;;;;;;20.55;13.50;;;;;;;5.53;86.98;101618.41;6258692;23;20035;-78
2023/04/18 02:31:41;;;;;;;19.33;14.52;;;;;;;5.56;87.01;101610.44;6262239;23;20035;-79
2023/04/18 02:34:10;;;;;;;22.15;15.20;;;;;;;5.54;87.41;101609.69;6269562;23;20008;-79
2023/04/18 02:36:36;;;;;;;23.30;14.77;;;;;;;5.54;87.11;101604.50;6270604;22;20030;-78
2023/04/18 02:39:03;;;;;;;24.05;14.90;;;;;;;5.50;87.08;101605.63;6270953;23;20008;-78
2023/04/18 02:41:30;;;;;;;20.75;15.18;;;;;;;5.52;87.30;101610.72;6270925;23;20009;-78
2023/04/18 02:43:56;;;;;;;26.40;14.65;;;;;;;5.64;87.58;101615.97;6271349;23;20008;-79
2023/04/18 02:46:23;;;;;;;22.48;14.57;;;;;;;5.63;87.08;101609.09;6270635;22;20027;-78
2023/04/18 02:48:50;;;;;;;19.30;13.77;;;;;;;5.68;87.31;101612.19;6271049;23;20055;-78
2023/04/18 02:51:18;;;;;;;22.30;14.57;;;;;;;5.72;87.16;101617.19;6259107;23;20024;-79
2023/04/18 02:53:45;;;;;;;23.92;14.77;;;;;;;5.63;87.71;101616.06;6253265;23;20032;-79
2023/04/18 02:56:15;;;;;;;23.52;14.80;;;;;;;5.52;87.55;101610.72;6254152;23;20021;-79
2023/04/18 02:58:42;;;;;;;22.35;14.68;;;;;;;5.47;87.44;101624.00;6254024;23;20034;-79
2023/04/18 03:01:08;;;;;;;22.52;14.98;;;;;;;5.36;88.14;101616.06;6251462;23;20055;-79
2023/04/18 03:03:41;;;;;;;25.00;15.20;;;;;;;5.28;88.35;101618.31;6253378;23;20063;-77
2023/04/18 03:06:08;;;;;;;24.33;15.20;;;;;;;5.23;88.96;101617.75;6252375;23;20051;-79
2023/04/18 03:08:35;;;;;;;19.38;14.45;;;;;;;5.17;88.96;101619.00;6252818;23;20024;-79
2023/04/18 03:11:02;;;;;;;20.23;15.07;;;;;;;5.19;89.73;101618.91;6252862;23;20047;-77
2023/04/18 03:13:29;;;;;;;21.67;14.45;;;;;;;5.10;89.94;101624.69;6252499;23;20048;-80
2023/04/18 03:15:55;;;;;;;23.83;15.90;;;;;;;5.08;90.34;101622.19;6255961;23;20055;-79
2023/04/18 03:18:22;;;;;;;22.08;15.38;;;;;;;5.07;90.95;101627.47;6252190;23;20056;-81
2023/04/18 03:20:48;;;;;;;25.15;16.25;;;;;;;5.06;91.36;101611.06;6255749;23;20047;-80
2023/04/18 03:23:15;;;;;;;25.25;16.08;;;;;;;5.05;91.50;101621.53;6254073;23;20090;-79
2023/04/18 03:25:43;;;;;;;23.77;15.10;;;;;;;4.98;91.29;101626.28;6251690;23;20115;-80
2023/04/18 03:28:10;;;;;;;22.17;15.82;;;;;;;4.94;92.12;101625.63;6252172;23;20031;-80
2023/04/18 03:30:36;;;;;;;25.08;16.08;;;;;;;4.86;92.39;101627.88;6250962;23;20024;-80
2023/04/18 03:33:04;;;;;;;22.83;15.38;;;;;;;4.89;92.46;101624.25;6249887;23;20024;-79
2023/04/18 03:35:31;;;;;;;23.55;15.82;;;;;;;4.86;92.60;101617.50;6249391;23;20028;-80
2023/04/18 03:37:57;;;;;;;25.88;15.80;;;;;;;4.81;92.32;101622.13;6251497;23;20035;-79
2023/04/18 03:40:24;;;;;;;24.17;16.23;;;;;;;4.81;92.95;101627.31;6253866;23;20032;-79
2023/04/18 03:42:52;;;;;;;24.13;16.48;;;;;;;4.76;92.89;101626.75;6255919;23;20357;-79
2023/04/18 03:45:19;;;;;;;23.67;16.58;;;;;;;4.71;93.26;101626.25;6255679;23;20352;-79
2023/04/18 03:47:46;;;;;;;28.05;17.85;;;;;;;4.70;93.51;101637.53;6256082;23;20020;-79
2023/04/18 03:50:12;;;;;;;22.88;16.23;;;;;;;4.70;94.43;101634.09;6253250;23;20543;-79
2023/04/18 03:52:39;;;;;;;22.90;17.00;;;;;;;4.70;95.22;101634.09;6252925;23;20024;-78
2023/04/18 03:55:06;;;;;;;27.38;18.02;;;;;;;4.72;94.58;101632.25;6249001;23;20016;-76
2023/04/18 03:57:33;;;;;;;24.63;17.65;;;;;;;4.72;95.44;101640.88;6247772;23;20066;-77
2023/04/18 04:00:01;;;;;;;26.55;17.95;;;;;;;4.79;95.20;101642.13;6247179;23;20369;-78
2023/04/18 04:02:27;;;;;;;26.90;18.35;;;;;;;4.76;96.10;101642.31;6247860;23;20047;-78
2023/04/18 04:04:54;;;;;;;27.52;17.08;;;;;;;4.73;95.96;101632.13;6248391;23;20028;-78
2023/04/18 04:07:21;;;;;;;32.45;19.17;;;;;;;4.70;96.03;101639.28;6250468;23;20248;-77
2023/04/18 04:09:48;;;;;;;24.95;17.83;;;;;;;4.69;96.76;101638.47;6250297;23;20035;-78
2023/04/18 04:12:14;;;;;;;25.33;17.88;;;;;;;4.74;96.66;101636.38;6250956;23;20039;-77
2023/04/18 04:14:41;;;;;;;25.27;18.17;;;;;;;4.77;96.55;101643.16;6252204;23;20357;-78
2023/04/18 04:17:09;;;;;;;23.33;18.15;;;;;;;4.73;96.63;101641.66;6252101;23;20060;-79
2023/04/18 04:19:36;;;;;;;25.23;17.67;;;;;;;4.68;97.20;101638.56;6253505;23;20031;-79
2023/04/18 04:22:02;;;;;;;29.27;18.52;;;;;;;4.69;97.61;101648.84;6252388;23;20055;-79
2023/04/18 04:24:29;;;;;;;27.17;18.27;;;;;;;4.68;97.43;101646.34;6253102;23;20055;-77
2023/04/18 04:26:57;;;;;;;27.45;18.10;;;;;;;4.70;97.26;101654.84;6251200;23;20062;-79
2023/04/18 04:29:25;;;;;;;27.83;18.73;;;;;;;4.64;98.03;101659.47;6252543;23;20076;-78
2023/04/18 04:31:51;;;;;;;27.45;18.67;;;;;;;4.69;97.70;101653.19;6254065;23;20028;-78
2023/04/18 04:34:20;;;;;;;28.23;18.63;;;;;;;4.65;97.93;101661.16;6251204;23;20413;-77
2023/04/18 04:36:47;;;;;;;25.08;18.75;;;;;;;4.63;98.13;101668.19;6254386;23;20527;-78
2023/04/18 04:39:14;;;;;;;29.25;19.40;;;;;;;4.66;98.01;101661.97;6251407;23;20035;-78
2023/04/18 04:41:40;;;;;;;30.23;19.17;;;;;;;4.63;98.68;101667.34;6254880;23;20028;-78
2023/04/18 04:44:08;;;;;;;27.15;19.45;;;;;;;4.63;98.84;101668.19;6253686;23;20055;-76
2023/04/18 04:46:38;;;;;;;29.90;19.45;;;;;;;4.74;98.76;101675.28;6254895;23;20020;-78
2023/04/18 04:49:04;;;;;;;31.52;19.63;;;;;;;4.82;98.56;101678.25;6254334;23;20028;-78
2023/04/18 04:51:32;;;;;;;35.35;20.95;;;;;;;4.89;98.46;101681.31;6252581;23;20031;-79
2023/04/18 04:53:59;;;;;;;31.58;20.27;;;;;;;5.01;98.23;101685.75;6251960;23;20024;-79
2023/04/18 04:56:26;;;;;;;30.55;19.55;;;;;;;5.05;98.30;101683.81;6253867;23;20020;-80
2023/04/18 04:58:52;;;;;;;35.10;20.88;;;;;;;5.11;98.33;101692.03;6253258;23;20028;-80
2023/04/18 05:01:19;;;;;;;28.77;19.35;;;;;;;5.20;97.76;101698.44;6253868;23;20015;-80
2023/04/18 05:03:46;;;;;;;28.88;19.95;;;;;;;5.26;97.32;101698.84;6253344;23;20089;-79
2023/04/18 05:06:12;;;;;;;28.33;20.35;;;;;;;5.29;97.31;101697.81;6253231;23;20020;-79
2023/04/18 05:08:40;;;;;;;29.50;20.15;;;;;;;5.39;97.13;101701.53;6254855;23;20078;-79
2023/04/18 05:11:07;;;;;;;27.30;20.23;;;;;;;5.52;96.86;101696.41;6255852;23;20024;-81
2023/04/18 05:13:34;;;;;;;28.65;20.58;;;;;;;5.60;96.37;101707.13;6255754;23;20047;-80
2023/04/18 05:16:01;;;;;;;28.77;19.70;;;;;;;5.72;96.09;101708.09;6254046;23;20052;-81
2023/04/18 05:18:33;;;;;;;29.80;19.15;;;;;;;5.84;96.05;101699.50;6254086;23;20023;-81
2023/04/18 05:20:59;;;;;;;31.00;20.50;;;;;;;5.90;95.50;101699.97;6254944;23;20054;-80
2023/04/18 05:23:26;;;;;;;30.48;19.42;;;;;;;5.93;94.90;101710.16;6253558;23;20054;-80
2023/04/18 05:25:54;;;;;;;25.70;19.23;;;;;;;6.02;94.51;101700.94;6253205;23;20055;-80
2023/04/18 05:28:23;;;;;;;28.77;19.15;;;;;;;6.07;94.10;101701.47;6253346;23;20027;-79
2023/04/18 05:30:50;;;;;;;27.67;19.80;;;;;;;6.11;93.76;101700.34;6250806;23;20085;-78
2023/04/18 05:33:17;;;;;;;32.63;20.58;;;;;;;6.16;93.69;101703.44;6254175;23;20026;-80
2023/04/18 05:35:44;;;;;;;29.17;19.35;;;;;;;6.22;93.32;101705.66;6254114;23;20039;-80
2023/04/18 05:38:10;;;;;;;27.63;19.33;;;;;;;6.33;92.63;101721.38;6255395;23;20153;-79
2023/04/18 05:40:37;;;;;;;27.17;19.35;;;;;;;6.44;92.35;101723.25;6255006;23;20062;-80
2023/04/18 05:43:05;;;;;;;29.20;20.15;;;;;;;6.54;92.03;101723.47;6255828;23;20024;-81
2023/04/18 05:45:31;;;;;;;24.95;18.92;;;;;;;6.69;91.38;101727.63;6254114;23;20059;-78
2023/04/18 05:47:58;;;;;;;25.02;19.35;;;;;;;6.81;90.96;101729.41;6253864;23;20369;-79
2023/04/18 05:50:25;;;;;;;28.25;19.60;;;;;;;6.91;90.40;101735.63;6255991;23;20028;-79
2023/04/18 05:52:51;;;;;;;26.73;19.52;;;;;;;7.10;89.72;101734.34;6255243;23;20103;-79
2023/04/18 05:55:18;;;;;;;32.30;19.48;;;;;;;7.17;89.10;101735.59;6253756;23;20417;-79
2023/04/18 05:57:45;;;;;;;27.65;20.05;;;;;;;7.28;88.47;101738.28;6254744;23;20028;-79
2023/04/18 06:00:15;;;;;;;24.10;17.67;;;;;;;7.40;87.74;101729.59;6254109;23;20447;-79
2023/04/18 06:02:45;;;;;;;26.92;18.65;;;;;;;7.97;87.17;101715.94;6255710;23;20086;-78
2023/04/18 06:05:12;;;;;;;23.08;17.48;;;;;;;8.87;85.53;101723.00;6257057;23;20079;-80
2023/04/18 06:07:39;;;;;;;23.90;18.10;;;;;;;9.47;82.47;101711.28;6257634;23;20043;-80
2023/04/18 06:10:12;;;;;;;24.45;17.15;;;;;;;10.28;79.20;101716.00;6257470;23;20062;-81
2023/04/18 06:12:38;;;;;;;24.35;17.20;;;;;;;10.52;76.94;101713.09;6258334;23;20024;-79
2023/04/18 06:15:06;;;;;;;24.55;17.80;;;;;;;11.27;75.27;101702.25;6252450;23;20485;-76
2023/04/18 06:17:34;;;;;;;23.45;16.98;;;;;;;11.27;73.27;101697.00;6254659;23;20345;-80
2023/04/18 06:20:02;;;;;;;22.60;17.58;;;;;;;12.01;71.54;101690.44;6251663;23;20024;-80
2023/04/18 06:22:29;;;;;;;24.60;17.17;;;;;;;11.81;70.52;101708.00;6255729;23;20334;-79
2023/04/18 06:24:55;;;;;;;24.48;16.83;;;;;;;10.72;72.54;101714.03;6253773;23;20035;-80
2023/04/18 06:27:22;;;;;;;21.00;16.58;;;;;;;10.82;73.47;101720.16;6253136;23;20020;-81
2023/04/18 06:29:49;;;;;;;21.67;16.38;;;;;;;10.81;72.50;101722.91;6254367;23;20074;-80
2023/04/18 06:32:16;;;;;;;20.38;15.80;;;;;;;9.85;74.07;101725.69;6257459;23;20028;-82
2023/04/18 06:34:44;;;;;;;27.17;16.35;;;;;;;9.28;75.92;101722.38;6251432;23;20020;-78
2023/04/18 06:37:11;;;;;;;20.10;16.48;;;;;;;9.45;76.58;101723.66;6256292;23;20492;-79
2023/04/18 06:39:38;;;;;;;19.23;14.75;;;;;;;9.59;76.61;101723.38;6254684;23;20071;-78
2023/04/18 06:42:04;;;;;;;24.10;15.65;;;;;;;9.76;76.64;101732.50;6253408;23;20404;-79
2023/04/18 06:44:31;;;;;;;20.52;14.98;;;;;;;10.54;74.71;101720.81;6255385;23;20123;-78
2023/04/18 06:46:58;;;;;;;21.85;14.63;;;;;;;11.34;71.65;101715.66;6256048;23;20023;-79
2023/04/18 06:49:25;;;;;;;18.27;14.23;;;;;;;11.48;71.28;101720.47;6254424;23;20039;-79
2023/04/18 06:51:53;;;;;;;20.35;13.27;;;;;;;12.44;68.97;101708.34;6253343;23;20729;-78
2023/04/18 06:54:19;;;;;;;18.27;13.77;;;;;;;11.86;69.30;101718.88;6252831;23;20056;-78
2023/04/18 06:56:46;;;;;;;15.95;13.07;;;;;;;12.27;67.65;101702.03;6247688;23;20024;-78
2023/04/18 06:59:13;;;;;;;17.63;15.52;;;;;;;12.50;66.55;101692.00;6253999;23;20297;-79
2023/04/18 07:01:40;;;;;;;16.45;12.23;;;;;;;11.91;67.18;101711.44;6252073;23;20056;-77
2023/04/18 07:04:07;;;;;;;18.23;12.80;;;;;;;11.14;68.55;101727.03;6249850;23;20020;-78
2023/04/18 07:06:34;;;;;;;16.08;12.75;;;;;;;11.31;69.03;101723.78;6249172;23;20042;-78
2023/04/18 07:09:02;;;;;;;20.13;13.45;;;;;;;11.94;66.72;101709.38;6250275;23;20058;-80
2023/04/18 07:11:29;;;;;;;15.00;12.07;;;;;;;12.30;66.06;101699.94;6258123;23;20073;-80
2023/04/18 07:13:55;;;;;;;17.85;12.93;;;;;;;12.95;64.61;101703.44;6252778;23;20142;-80
2023/04/18 07:16:22;;;;;;;16.65;12.15;;;;;;;13.03;63.42;101701.91;6254008;23;20031;-79
2023/04/18 07:18:50;;;;;;;15.13;11.90;;;;;;;12.90;63.78;101699.59;6255493;23;20083;-79
2023/04/18 07:21:17;;;;;;;16.45;11.80;;;;;;;12.22;64.73;101699.81;6252027;23;20051;-79
2023/04/18 07:23:43;;;;;;;17.33;12.02;;;;;;;11.99;65.38;101711.56;6255245;23;20032;-79
2023/04/18 07:26:12;;;;;;;15.75;11.45;;;;;;;12.06;65.66;101710.06;6257405;23;20016;-79
2023/04/18 07:28:39;;;;;;;15.55;11.43;;;;;;;12.19;64.48;101715.84;6258465;23;20314;-79
2023/04/18 07:31:09;;;;;;;14.65;10.80;;;;;;;12.59;63.58;101704.28;6258134;23;20035;-80
2023/04/18 07:33:36;;;;;;;13.18;10.02;;;;;;;13.64;61.62;101698.66;6257790;23;20054;-80
2023/04/18 07:36:03;;;;;;;13.77;9.93;;;;;;;13.84;61.24;101694.88;6257972;23;20020;-79
2023/04/18 07:38:33;;;;;;;14.10;10.10;;;;;;;14.00;59.69;101694.19;6258136;23;20024;-81
2023/04/18 07:41:01;;;;;;;13.63;10.15;;;;;;;12.96;61.68;101705.09;6258611;23;20076;-81
2023/04/18 07:43:29;;;;;;;15.23;10.23;;;;;;;13.13;61.97;101706.13;6259285;23;20055;-78
2023/04/18 07:45:56;;;;;;;16.40;10.90;;;;;;;13.31;61.50;101708.81;6256689;23;20389;-79
2023/04/18 07:48:24;;;;;;;13.25;9.82;;;;;;;13.13;62.00;101707.94;6256755;23;20027;-79
2023/04/18 07:50:50;;;;;;;11.25;9.40;;;;;;;12.57;62.99;101719.34;6257666;23;20070;-79
2023/04/18 07:53:17;;;;;;;11.32;9.13;;;;;;;13.31;61.86;101724.59;6255443;23;20024;-79
2023/04/18 07:55:44;;;;;;;11.77;8.88;;;;;;;12.62;63.32;101725.00;6254932;23;20094;-77
2023/04/18 07:58:11;;;;;;;16.90;9.43;;;;;;;13.19;62.67;101720.53;6253908;23;20052;-79
2023/04/18 08:00:41;;;;;;;10.30;8.05;;;;;;;12.54;63.28;101722.25;6256797;23;20388;-79
2023/04/18 08:03:09;;;;;;;12.02;8.55;;;;;;;12.34;62.99;101715.38;6258807;23;20277;-80
2023/04/18 08:05:35;;;;;;;12.27;9.32;;;;;;;12.99;63.10;101724.19;6259498;23;20062;-79
2023/04/18 08:08:02;;;;;;;13.25;9.13;;;;;;;13.65;61.78;101729.25;6258952;23;20064;-79
2023/04/18 08:10:29;;;;;;;13.93;9.23;;;;;;;12.95;62.30;101724.47;6259231;23;20357;-81
2023/04/18 08:12:55;;;;;;;13.15;9.70;;;;;;;12.25;64.30;101733.66;6259246;23;20027;-80
2023/04/18 08:15:22;;;;;;;13.32;9.90;;;;;;;12.34;65.22;101736.38;6258601;23;20024;-80
2023/04/18 08:17:50;;;;;;;15.02;10.27;;;;;;;11.78;65.95;101737.94;6259546;23;20047;-80
2023/04/18 08:20:17;;;;;;;12.13;9.68;;;;;;;11.69;66.68;101745.78;6257985;23;20028;-79
2023/04/18 08:22:44;;;;;;;13.73;9.75;;;;;;;12.02;67.33;101747.19;6257545;23;20024;-79
2023/04/18 08:25:11;;;;;;;11.48;9.13;;;;;;;12.12;66.76;101743.59;6262400;23;20056;-79
2023/04/18 08:27:37;;;;;;;11.85;9.27;;;;;;;12.02;66.54;101748.03;6263391;23;20020;-81
2023/04/18 08:30:05;;;;;;;11.73;9.38;;;;;;;11.14;67.80;101763.69;6262162;23;20035;-79
2023/04/18 08:32:33;;;;;;;12.57;9.68;;;;;;;11.52;68.02;101755.94;6258555;23;20026;-79
2023/04/18 08:35:01;;;;;;;13.50;9.73;;;;;;;11.59;68.16;101753.63;6259815;23;20024;-78
2023/04/18 08:37:27;;;;;;;11.77;9.40;;;;;;;11.44;68.04;101750.53;6255911;23;20059;-80
2023/04/18 08:39:55;;;;;;;13.02;9.52;;;;;;;11.46;68.14;101756.47;6257299;23;20024;-79
2023/04/18 08:42:23;;;;;;;13.65;9.75;;;;;;;11.46;68.37;101753.84;6256936;23;20089;-79
2023/04/18 08:44:50;;;;;;;11.73;10.10;;;;;;;11.79;68.53;101759.75;6253105;23;20024;-76
2023/04/18 08:47:18;;;;;;;12.55;9.43;;;;;;;12.49;66.85;101753.38;6253438;23;20016;-77
2023/04/18 08:49:45;;;;;;;11.55;9.68;;;;;;;12.02;66.94;101748.03;6255121;23;20082;-78
2023/04/18 08:52:15;;;;;;;13.20;9.60;;;;;;;12.35;66.48;101744.13;6256565;23;20027;-79
2023/04/18 08:54:43;;;;;;;15.02;9.65;;;;;;;12.63;66.50;101745.88;6258339;23;20024;-79
2023/04/18 08:57:11;;;;;;;12.80;9.68;;;;;;;12.04;67.65;101756.59;6259373;23;20022;-80
2023/04/18 08:59:38;;;;;;;12.45;10.07;;;;;;;11.48;68.53;101762.41;6255773;23;20024;-78
2023/04/18 09:02:08;;;;;;;12.30;9.73;;;;;;;11.33;69.60;101766.41;6254296;23;20032;-77
2023/04/18 09:04:37;;;;;;;13.52;10.05;;;;;;;11.62;69.15;101769.91;6250152;23;20032;-77
2023/04/18 09:07:05;;;;;;;11.02;9.32;;;;;;;11.71;69.30;101777.94;6253101;23;20016;-78
2023/04/18 09:09:47;;;;;;;11.75;9.80;;;;;;;11.11;69.64;101764.78;6254271;23;20306;-79
2023/04/18 09:12:17;;;;;;;14.43;10.65;;;;;;;11.03;70.18;101766.41;6252982;23;20043;-78
2023/04/18 09:14:45;;;;;;;11.75;9.40;;;;;;;11.43;69.44;101759.38;6249976;23;20024;-79
2023/04/18 09:17:14;;;;;;;12.98;10.07;;;;;;;11.45;69.59;101761.84;6258343;23;20365;-79
2023/04/18 09:19:49;;;;;;;11.32;9.32;;;;;;;11.27;70.20;101769.53;6258649;23;20024;-80
2023/04/18 09:22:16;;;;;;;12.77;10.32;;;;;;;11.13;70.37;101767.28;6260116;23;20055;-79
2023/04/18 09:24:51;;;;;;;12.00;9.13;;;;;;;11.09;71.00;101760.66;6258306;23;20035;-79
2023/04/18 09:27:19;;;;;;;11.82;9.45;;;;;;;11.43;70.73;101772.47;6258935;23;20027;-79
2023/04/18 09:29:48;;;;;;;14.75;10.13;;;;;;;11.22;70.87;101750.78;6257930;23;20028;-79
2023/04/18 09:32:23;;;;;;;12.88;9.80;;;;;;;11.44;70.40;101754.94;6260377;23;20038;-80
2023/04/18 09:34:53;;;;;;;12.32;9.93;;;;;;;11.55;70.46;101760.91;6258006;23;20107;-81
2023/04/18 09:37:20;;;;;;;12.85;10.10;;;;;;;11.40;70.26;101751.78;6260379;23;20054;-80
2023/04/18 09:39:47;;;;;;;11.68;9.00;;;;;;;11.42;71.09;101755.09;6258361;23;20024;-78
2023/04/18 09:42:15;;;;;;;13.23;9.88;;;;;;;11.33;71.30;101762.94;6257660;23;20028;-79
2023/04/18 09:44:59;;;;;;;11.68;9.80;;;;;;;11.32;70.85;101761.28;6257845;23;20146;-79
2023/04/18 09:47:27;;;;;;;12.43;9.50;;;;;;;11.38;70.91;101751.06;6256281;23;20024;-79
2023/04/18 09:49:54;;;;;;;13.55;9.70;;;;;;;11.81;70.35;101752.59;6257093;23;20030;-77
2023/04/18 09:52:20;;;;;;;12.70;9.82;;;;;;;11.89;69.89;101744.84;6249453;23;20165;-78
2023/04/18 09:54:48;;;;;;;11.65;9.32;;;;;;;12.10;69.06;101740.28;6245622;23;20024;-77
2023/04/18 09:57:17;;;;;;;13.95;9.57;;;;;;;11.79;69.34;101744.84;6243854;23;20024;-78
2023/04/18 09:59:47;;;;;;;12.38;9.45;;;;;;;11.88;69.55;101737.94;6244811;23;20047;-75
2023/04/18 10:02:19;;;;;;;12.70;9.55;;;;;;;11.87;69.67;101736.28;6241786;23;20059;-76
2023/04/18 10:04:47;;;;;;;12.05;9.48;;;;;;;11.86;69.56;101739.88;6244530;23;20024;-76
2023/04/18 10:07:16;;;;;;;12.50;9.15;;;;;;;11.96;69.35;101735.47;6244922;23;20095;-76
2023/04/18 10:09:46;;;;;;;11.65;9.23;;;;;;;12.03;68.81;101726.06;6245512;23;20027;-77
2023/04/18 10:12:13;;;;;;;14.27;9.95;;;;;;;12.10;69.13;101732.44;6243762;23;20028;-78
2023/04/18 10:14:42;;;;;;;12.05;9.57;;;;;;;12.38;68.73;101735.13;6245309;23;20058;-76
2023/04/18 10:17:10;;;;;;;11.68;9.23;;;;;;;12.90;67.54;101731.94;6244127;23;20091;-78
2023/04/18 10:19:40;;;;;;;11.77;8.95;;;;;;;12.51;67.72;101720.75;6242510;23;20062;-78
2023/04/18 10:22:06;;;;;;;12.30;8.93;;;;;;;13.27;67.38;101720.59;6245420;23;20080;-77
2023/04/18 10:24:48;;;;;;;11.40;8.73;;;;;;;13.17;66.77;101722.47;6243810;23;20067;-77
2023/04/18 10:27:15;;;;;;;11.23;8.70;;;;;;;12.99;66.64;101721.56;6245680;23;20405;-77
2023/04/18 10:29:51;;;;;;;10.55;8.70;;;;;;;12.92;66.57;101721.31;6246059;23;20031;-75
2023/04/18 10:32:19;;;;;;;11.02;8.40;;;;;;;13.40;65.63;101718.44;6246047;23;20070;-77
2023/04/18 10:34:46;;;;;;;10.50;7.45;;;;;;;13.46;65.54;101717.88;6246046;23;20359;-77
2023/04/18 10:37:13;;;;;;;11.15;8.35;;;;;;;13.99;64.41;101703.88;6246253;23;20020;-78
2023/04/18 10:40:01;;;;;;;11.77;8.65;;;;;;;13.88;64.37;101704.13;6249208;23;20024;-77
2023/04/18 10:42:59;;;;;;;14.00;8.98;;;;;;;13.84;64.90;101708.03;6248470;23;20020;-78
2023/04/18 10:45:29;;;;;;;9.98;8.30;;;;;;;14.17;62.84;101688.91;6249389;23;20071;-78
2023/04/18 10:48:26;;;;;;;11.23;8.90;;;;;;;14.41;62.91;101704.06;6249669;23;20020;-78
2023/04/18 10:51:15;;;;;;;10.90;8.55;;;;;;;13.73;64.31;101708.25;6250491;23;20024;-78
2023/04/18 10:53:49;;;;;;;12.13;8.65;;;;;;;13.57;64.51;101698.41;6246984;23;20024;-77
2023/04/18 10:56:16;;;;;;;11.23;8.95;;;;;;;13.52;65.27;101706.75;6247011;23;20095;-78
2023/04/18 10:58:49;;;;;;;14.60;9.07;;;;;;;13.32;66.01;101702.59;6247406;23;20044;-78
2023/04/18 11:01:24;;;;;;;9.70;7.93;;;;;;;13.42;65.61;101700.72;6246349;23;20056;-75
2023/04/18 11:03:52;;;;;;;10.82;8.45;;;;;;;13.44;65.54;101709.28;6246846;23;20078;-78
2023/04/18 11:06:18;;;;;;;12.05;8.55;;;;;;;13.70;65.05;101708.59;6247158;23;20016;-77
2023/04/18 11:08:45;;;;;;;11.60;9.05;;;;;;;13.56;65.48;101696.78;6246325;23;20035;-77
2023/04/18 11:11:13;;;;;;;10.85;8.73;;;;;;;13.95;64.81;101694.66;6246204;23;20055;-78
2023/04/18 11:13:56;;;;;;;12.63;9.15;;;;;;;14.04;64.79;101685.84;6243120;23;20099;-78
2023/04/18 11:16:27;;;;;;;;;;;;;;;13.66;65.57;101688.81;6246530;23;20356;-79
2023/04/18 11:18:54;;;;;;;13.57;9.50;;;;;;;13.70;65.21;101687.53;6245028;23;20376;-75
2023/04/18 11:21:21;;;;;;;10.95;8.75;;;;;;;13.39;66.08;101680.00;6244239;23;20105;-77